createdAt,value
2018-12-05T00:02:28.143Z,10.87
2018-12-05T00:04:59.819Z,11.00
2018-12-05T00:07:30.589Z,10.97
2018-12-05T00:10:02.705Z,10.80
2018-12-05T00:12:33.543Z,10.67
2018-12-05T00:15:04.581Z,10.77
2018-12-05T00:17:35.244Z,11.47
2018-12-05T00:20:07.094Z,11.67
2018-12-05T00:22:37.954Z,12.17
2018-12-05T00:25:10.118Z,12.07
2018-12-05T00:27:40.945Z,11.43
2018-12-05T00:30:11.648Z,12.03
2018-12-05T00:32:42.442Z,12.47
2018-12-05T00:35:13.869Z,12.57
2018-12-05T00:37:44.711Z,11.50
2018-12-05T00:40:15.661Z,11.60
2018-12-05T00:42:46.875Z,11.87
2018-12-05T00:45:17.880Z,12.43
2018-12-05T00:47:48.685Z,12.13
2018-12-05T00:50:19.469Z,10.87
2018-12-05T00:52:50.454Z,11.37
2018-12-05T00:55:24.938Z,12.40
2018-12-05T00:57:55.672Z,12.00
2018-12-05T01:00:26.545Z,11.23
2018-12-05T01:02:57.314Z,11.00
2018-12-05T01:05:28.054Z,10.73
2018-12-05T01:07:58.789Z,10.70
2018-12-05T01:10:29.888Z,11.23
2018-12-05T01:13:00.702Z,11.63
2018-12-05T01:15:31.465Z,11.93
2018-12-05T01:18:03.594Z,14.67
2018-12-05T01:20:34.601Z,13.07
2018-12-05T01:23:05.280Z,13.60
2018-12-05T01:25:36.026Z,13.40
2018-12-05T01:28:08.085Z,12.93
2018-12-05T01:30:38.851Z,12.90
2018-12-05T01:33:09.791Z,12.80
2018-12-05T01:35:40.535Z,11.37
2018-12-05T01:38:13.588Z,11.07
2018-12-05T01:40:44.428Z,12.13
2018-12-05T01:43:15.217Z,11.03
2018-12-05T01:45:46.127Z,12.40
2018-12-05T01:48:17.168Z,12.60
2018-12-05T01:50:47.955Z,14.83
2018-12-05T01:53:18.676Z,13.87
2018-12-05T01:55:49.413Z,12.97
2018-12-05T01:58:20.505Z,12.13
2018-12-05T02:00:51.221Z,10.77
2018-12-05T02:03:21.900Z,11.73
2018-12-05T02:05:52.647Z,10.80
2018-12-05T02:08:24.817Z,11.53
2018-12-05T02:10:55.635Z,12.57
2018-12-05T02:13:26.417Z,11.47
2018-12-05T02:15:57.159Z,12.00
2018-12-05T02:18:28.095Z,12.37
2018-12-05T02:20:58.869Z,12.30
2018-12-05T02:23:29.499Z,12.67
2018-12-05T02:26:00.161Z,14.03
2018-12-05T02:28:31.174Z,15.20
2018-12-05T02:31:02.518Z,17.37
2018-12-05T02:33:33.253Z,17.00
2018-12-05T02:36:04.148Z,17.10
2018-12-05T02:38:34.886Z,19.30
2018-12-05T02:41:06.022Z,19.80
2018-12-05T02:43:37.044Z,17.47
2018-12-05T02:46:07.903Z,14.37
2018-12-05T02:48:40.316Z,13.87
2018-12-05T02:51:11.086Z,14.67
2018-12-05T02:53:43.170Z,16.23
2018-12-05T02:56:14.147Z,18.43
2018-12-05T02:58:44.949Z,18.77
2018-12-05T03:01:15.995Z,18.27
2018-12-05T03:03:46.700Z,17.97
2018-12-05T03:06:17.405Z,15.63
2018-12-05T03:08:48.955Z,16.77
2018-12-05T03:11:19.849Z,17.13
2018-12-05T03:13:50.621Z,17.90
2018-12-05T03:16:21.707Z,18.53
2018-12-05T03:18:52.477Z,19.07
2018-12-05T03:21:23.141Z,17.53
2018-12-05T03:23:53.858Z,20.03
2018-12-05T03:26:24.847Z,18.23
2018-12-05T03:28:55.597Z,19.57
2018-12-05T03:31:26.238Z,17.67
2018-12-05T03:33:57.023Z,20.27
2018-12-05T03:36:28.093Z,19.23
2018-12-05T03:38:58.836Z,19.57
2018-12-05T03:41:30.825Z,20.03
2018-12-05T03:44:01.507Z,19.80
2018-12-05T03:46:34.702Z,18.17
2018-12-05T03:49:06.579Z,18.77
2018-12-05T03:51:37.360Z,18.93
2018-12-05T03:54:12.121Z,18.63
2018-12-05T03:56:44.541Z,17.60
2018-12-05T03:59:15.254Z,18.43
2018-12-05T04:01:46.162Z,18.97
2018-12-05T04:04:17.002Z,19.57
2018-12-05T04:06:48.006Z,19.20
2018-12-05T04:09:19.177Z,18.23
2018-12-05T04:11:49.941Z,18.50
2018-12-05T04:14:20.870Z,18.50
2018-12-05T04:16:52.328Z,17.87
2018-12-05T04:19:23.184Z,17.97
2018-12-05T04:21:54.050Z,19.67
2018-12-05T04:24:25.322Z,17.93
2018-12-05T04:26:56.166Z,18.83
2018-12-05T04:29:26.926Z,17.23
2018-12-05T04:31:58.582Z,18.53
2018-12-05T04:34:30.718Z,17.93
2018-12-05T04:37:01.511Z,17.90
2018-12-05T04:39:32.253Z,19.10
2018-12-05T04:42:03.025Z,17.00
2018-12-05T04:44:35.201Z,17.87
2018-12-05T04:47:05.944Z,18.23
2018-12-05T04:49:36.581Z,17.77
2018-12-05T04:52:07.280Z,18.40
2018-12-05T04:54:37.994Z,17.87
2018-12-05T04:57:08.870Z,17.37
2018-12-05T04:59:39.544Z,19.00
2018-12-05T05:02:11.824Z,17.93
2018-12-05T05:04:42.519Z,18.57
2018-12-05T05:07:13.188Z,18.70
2018-12-05T05:09:45.609Z,19.10
2018-12-05T05:12:19.423Z,18.90
2018-12-05T05:14:50.377Z,18.13
2018-12-05T05:17:21.182Z,18.43
2018-12-05T05:19:53.330Z,18.20
2018-12-05T05:22:24.150Z,18.00
2018-12-05T05:24:57.993Z,19.43
2018-12-05T05:27:28.806Z,18.97
2018-12-05T05:30:00.885Z,19.20
2018-12-05T05:32:31.786Z,18.23
2018-12-05T05:35:02.522Z,17.10
2018-12-05T05:37:33.535Z,19.00
2018-12-05T05:40:04.275Z,18.37
2018-12-05T05:42:34.995Z,17.60
2018-12-05T05:45:05.800Z,18.47
2018-12-05T05:47:36.576Z,18.53
2018-12-05T05:50:07.583Z,17.87
2018-12-05T05:52:38.931Z,17.77
2018-12-05T05:55:09.693Z,17.37
2018-12-05T05:57:40.481Z,16.50
2018-12-05T06:00:11.677Z,16.77
2018-12-05T06:02:42.488Z,16.50
2018-12-05T06:05:13.200Z,19.27
2018-12-05T06:07:44.008Z,23.10
2018-12-05T06:10:18.252Z,18.37
2018-12-05T06:12:50.778Z,18.87
2018-12-05T06:15:25.367Z,17.83
2018-12-05T06:17:59.956Z,19.40
2018-12-05T06:20:31.981Z,18.70
2018-12-05T06:23:04.468Z,19.07
2018-12-05T06:25:35.697Z,18.03
2018-12-05T06:28:06.413Z,20.80
2018-12-05T06:30:37.493Z,17.97
2018-12-05T06:33:08.245Z,19.10
2018-12-05T06:35:41.160Z,18.67
2018-12-05T06:38:11.886Z,17.47
2018-12-05T06:40:42.641Z,17.00
2018-12-05T06:43:13.356Z,16.97
2018-12-05T06:45:44.170Z,17.77
2018-12-05T06:48:15.228Z,17.60
2018-12-05T06:50:45.998Z,17.97
2018-12-05T06:53:19.235Z,18.63
2018-12-05T06:55:55.089Z,17.80
2018-12-05T06:58:36.653Z,18.20
2018-12-05T07:01:12.823Z,17.63
2018-12-05T07:03:45.697Z,17.57
2018-12-05T07:06:21.710Z,17.43
2018-12-05T07:09:10.282Z,16.27
2018-12-05T07:11:42.433Z,17.20
2018-12-05T07:14:14.525Z,16.70
2018-12-05T07:16:49.026Z,15.97
2018-12-05T07:19:19.728Z,16.67
2018-12-05T07:21:50.533Z,17.07
2018-12-05T07:24:21.529Z,16.53
2018-12-05T07:26:52.249Z,17.70
2018-12-05T07:29:23.036Z,17.10
2018-12-05T07:31:54.188Z,17.87
2018-12-05T07:34:24.913Z,16.73
2018-12-05T07:36:55.734Z,16.83
2018-12-05T07:39:26.754Z,16.20
2018-12-05T07:41:57.801Z,16.03
2018-12-05T07:44:28.409Z,16.30
2018-12-05T07:46:59.560Z,15.37
2018-12-05T07:49:30.526Z,16.23
2018-12-05T07:52:02.077Z,16.00
2018-12-05T07:54:32.885Z,16.10
2018-12-05T07:57:03.729Z,15.97
2018-12-05T07:59:35.861Z,16.33
2018-12-05T08:02:06.834Z,15.10
2018-12-05T08:04:37.764Z,14.97
2018-12-05T08:07:08.627Z,15.80
2018-12-05T08:09:39.485Z,15.00
2018-12-05T08:12:11.839Z,16.63
2018-12-05T08:14:42.557Z,17.00
2018-12-05T08:17:13.501Z,15.63
2018-12-05T08:19:44.560Z,16.00
2018-12-05T08:22:15.399Z,16.37
2018-12-05T08:24:46.182Z,16.97
2018-12-05T08:27:16.966Z,16.57
2018-12-05T08:29:47.691Z,15.70
2018-12-05T08:32:18.759Z,14.97
2018-12-05T08:34:50.467Z,14.93
2018-12-05T08:37:21.211Z,15.13
2018-12-05T08:39:55.601Z,16.87
2018-12-05T08:42:26.436Z,15.60
2018-12-05T08:44:57.239Z,14.27
2018-12-05T08:47:33.651Z,14.83
2018-12-05T08:50:01.021Z,13.97
2018-12-05T08:52:31.725Z,15.47
2018-12-05T08:55:02.701Z,15.73
2018-12-05T08:57:33.429Z,14.97
2018-12-05T09:00:04.164Z,15.13
2018-12-05T09:02:38.653Z,14.97
2018-12-05T09:05:09.419Z,14.23
2018-12-05T09:07:40.153Z,15.50
2018-12-05T09:10:11.379Z,14.20
2018-12-05T09:12:42.395Z,13.77
2018-12-05T09:15:13.129Z,13.63
2018-12-05T09:17:44.089Z,13.63
2018-12-05T09:20:14.850Z,14.27
2018-12-05T09:22:45.637Z,15.47
2018-12-05T09:25:18.292Z,14.30
2018-12-05T09:27:49.071Z,13.60
2018-12-05T09:30:20.044Z,13.83
2018-12-05T09:32:51.056Z,14.23
2018-12-05T09:37:50.504Z,13.07
2018-12-05T09:40:21.245Z,13.10
2018-12-05T09:42:54.051Z,14.40
2018-12-05T09:45:24.741Z,13.40
2018-12-05T09:47:55.446Z,13.03
2018-12-05T09:50:27.081Z,12.43
2018-12-05T09:52:57.733Z,14.33
2018-12-05T09:55:30.744Z,12.93
2018-12-05T09:58:01.567Z,13.03
2018-12-05T10:00:33.841Z,13.07
2018-12-05T10:03:07.899Z,13.47
2018-12-05T10:05:38.566Z,13.73
2018-12-05T10:08:09.380Z,12.00
2018-12-05T10:10:41.474Z,13.53
2018-12-05T10:13:12.144Z,12.80
2018-12-05T10:15:42.878Z,12.90
2018-12-05T10:18:15.753Z,12.50
2018-12-05T10:20:46.431Z,12.70
2018-12-05T10:23:19.422Z,13.00
2018-12-05T10:25:50.229Z,14.07
2018-12-05T10:28:20.991Z,13.40
2018-12-05T10:30:52.281Z,12.63
2018-12-05T10:33:23.000Z,12.77
2018-12-05T10:35:53.707Z,13.17
2018-12-05T10:38:26.289Z,12.60
2018-12-05T10:40:57.253Z,12.37
2018-12-05T10:46:31.811Z,13.00
2018-12-05T10:49:02.858Z,11.67
2018-12-05T10:51:34.438Z,12.73
2018-12-05T10:54:05.421Z,12.77
2018-12-05T10:56:43.310Z,12.17
2018-12-05T10:59:18.632Z,11.73
2018-12-05T11:02:01.571Z,12.20
2018-12-05T11:04:38.331Z,11.87
2018-12-05T11:07:18.023Z,12.17
2018-12-05T11:09:56.057Z,12.87
2018-12-05T11:12:38.870Z,12.03
2018-12-05T11:15:19.731Z,12.77
2018-12-05T11:18:07.659Z,13.13
2018-12-05T11:20:48.858Z,13.10
2018-12-05T11:23:27.942Z,12.57
2018-12-05T11:26:06.094Z,11.37
2018-12-05T11:28:48.093Z,11.97
2018-12-05T11:31:27.512Z,11.43
2018-12-05T11:34:06.146Z,11.70
2018-12-05T11:36:46.693Z,12.80
2018-12-05T11:39:30.896Z,12.07
2018-12-05T11:42:03.311Z,11.87
2018-12-05T11:44:39.689Z,11.80
2018-12-05T11:47:15.264Z,11.37
2018-12-05T11:49:49.860Z,11.33
2018-12-05T11:52:22.733Z,14.03
2018-12-05T11:54:57.495Z,11.27
2018-12-05T11:57:33.325Z,12.33
2018-12-05T12:00:10.109Z,10.83
2018-12-05T12:02:44.130Z,11.23
2018-12-05T12:05:20.675Z,11.23
2018-12-05T12:07:55.561Z,11.30
2018-12-05T12:10:36.815Z,11.17
2018-12-05T12:13:11.253Z,10.73
2018-12-05T12:15:46.296Z,10.90
2018-12-05T12:18:22.259Z,11.33
2018-12-05T12:21:00.273Z,10.63
2018-12-05T12:23:34.227Z,10.10
2018-12-05T12:26:09.350Z,10.00
2018-12-05T12:28:43.967Z,9.77
2018-12-05T12:31:19.910Z,10.90
2018-12-05T12:33:54.763Z,10.17
2018-12-05T12:36:29.691Z,10.73
2018-12-05T12:39:04.141Z,10.53
2018-12-05T12:41:38.910Z,10.97
2018-12-05T12:44:15.170Z,10.93
2018-12-05T12:51:47.731Z,11.43
2018-12-05T12:54:23.034Z,11.77
2018-12-05T12:56:56.042Z,11.17
2018-12-05T12:59:30.708Z,10.53
2018-12-05T13:02:07.174Z,11.13
2018-12-05T13:04:42.317Z,11.00
2018-12-05T13:07:14.220Z,11.53
2018-12-05T13:09:45.752Z,12.50
2018-12-05T13:12:25.267Z,12.53
2018-12-05T13:15:00.116Z,12.97
2018-12-05T13:17:31.133Z,11.33
2018-12-05T13:20:04.675Z,12.23
2018-12-05T13:22:39.232Z,12.87
2018-12-05T13:25:13.734Z,12.23
2018-12-05T13:27:48.218Z,13.10
2018-12-05T13:30:23.398Z,12.33
2018-12-05T13:32:57.831Z,12.30
2018-12-05T13:35:33.426Z,11.57
2018-12-05T13:38:05.176Z,12.13
2018-12-05T13:40:37.640Z,13.07
2018-12-05T13:43:12.855Z,12.33
2018-12-05T13:45:47.809Z,12.50
2018-12-05T13:48:20.673Z,12.23
2018-12-05T13:50:57.396Z,12.47
2018-12-05T14:03:26.108Z,11.80
2018-12-05T14:06:01.408Z,11.70
2018-12-05T14:08:35.441Z,13.20
2018-12-05T14:11:07.792Z,12.83
2018-12-05T14:13:42.367Z,12.73
2018-12-05T14:16:16.691Z,13.10
2018-12-05T14:18:49.354Z,12.53
2018-12-05T14:21:23.807Z,12.47
2018-12-05T14:23:55.343Z,13.03
2018-12-05T14:26:32.554Z,12.77
2018-12-05T14:29:07.066Z,12.70
2018-12-05T14:31:41.428Z,13.33
2018-12-05T14:34:15.909Z,13.50
2018-12-05T14:36:50.618Z,13.20
2018-12-05T14:39:27.474Z,13.57
2018-12-05T14:42:03.004Z,12.10
2018-12-05T14:44:39.472Z,12.37
2018-12-05T14:47:14.744Z,13.70
2018-12-05T14:49:47.647Z,13.07
2018-12-05T14:52:21.919Z,12.87
2018-12-05T14:54:54.635Z,12.70
2018-12-05T14:57:30.720Z,12.83
2018-12-05T15:00:06.008Z,13.00
2018-12-05T15:02:40.594Z,13.20
2018-12-05T15:12:42.273Z,12.77
2018-12-05T15:15:13.599Z,13.03
2018-12-05T15:17:44.709Z,12.63
2018-12-05T15:20:17.201Z,13.07
2018-12-05T15:22:49.201Z,14.10
2018-12-05T15:25:20.189Z,13.43
2018-12-05T15:27:51.604Z,14.37
2018-12-05T15:30:24.315Z,13.30
2018-12-05T15:32:55.410Z,14.30
2018-12-05T15:35:26.562Z,12.93
2018-12-05T15:37:57.677Z,13.33
2018-12-05T15:40:28.726Z,13.60
2018-12-05T15:43:00.291Z,13.37
2018-12-05T15:45:31.287Z,13.17
2018-12-05T15:48:03.393Z,13.53
2018-12-05T15:50:34.457Z,13.93
2018-12-05T15:53:05.849Z,15.30
2018-12-05T15:55:36.878Z,14.93
2018-12-05T15:58:08.265Z,15.43
2018-12-05T16:00:39.310Z,13.53
2018-12-05T16:03:10.494Z,13.87
2018-12-05T16:05:42.217Z,13.20
2018-12-05T16:08:13.242Z,13.90
2018-12-05T16:10:44.257Z,14.17
2018-12-05T16:13:15.229Z,14.27
2018-12-05T16:15:46.282Z,14.63
2018-12-05T16:18:17.209Z,14.73
2018-12-05T16:20:48.594Z,14.97
2018-12-05T16:23:19.623Z,14.07
2018-12-05T16:25:50.785Z,13.53
2018-12-05T16:28:22.129Z,12.50
2018-12-05T16:30:53.174Z,12.93
2018-12-05T16:33:24.270Z,13.23
2018-12-05T16:35:55.317Z,12.10
2018-12-05T16:38:27.647Z,13.60
2018-12-05T16:40:58.736Z,11.33
2018-12-05T16:43:29.790Z,11.73
2018-12-05T16:46:01.193Z,12.30
2018-12-05T16:48:32.280Z,13.07
2018-12-05T16:51:03.417Z,12.13
2018-12-05T16:53:34.487Z,12.60
2018-12-05T16:56:05.697Z,12.50
2018-12-05T16:58:36.843Z,11.70
2018-12-05T17:01:08.035Z,13.00
2018-12-05T17:03:39.441Z,12.97
2018-12-05T17:06:10.774Z,14.40
2018-12-05T17:08:42.112Z,12.77
2018-12-05T17:11:13.270Z,12.47
2018-12-05T17:13:44.474Z,11.87
2018-12-05T17:16:18.089Z,11.63
2018-12-05T17:18:51.042Z,12.77
2018-12-05T17:25:22.448Z,11.73
2018-12-05T17:27:53.817Z,11.03
2018-12-05T17:30:25.387Z,11.07
2018-12-05T17:32:56.840Z,12.23
2018-12-05T17:35:28.722Z,10.43
2018-12-05T17:37:59.828Z,12.10
2018-12-05T17:40:31.420Z,12.20
2018-12-05T17:43:03.934Z,11.50
2018-12-05T17:45:35.285Z,10.50
2018-12-05T17:48:06.638Z,10.70
2018-12-05T17:50:37.765Z,11.13
2018-12-05T17:53:08.925Z,10.27
2018-12-05T17:55:42.065Z,11.13
2018-12-05T17:58:13.046Z,10.90
2018-12-05T18:00:50.773Z,11.50
2018-12-05T18:03:22.843Z,12.07
2018-12-05T18:05:53.877Z,11.70
2018-12-05T18:08:26.248Z,11.20
2018-12-05T18:10:58.909Z,11.43
2018-12-05T18:13:31.593Z,11.23
2018-12-05T18:16:05.699Z,11.47
2018-12-05T18:18:37.603Z,12.00
2018-12-05T18:21:10.265Z,12.23
2018-12-05T18:23:41.546Z,11.80
2018-12-05T18:26:15.259Z,12.73
2018-12-05T18:28:47.305Z,13.73
2018-12-05T18:31:21.806Z,11.00
2018-12-05T18:33:54.449Z,12.00
2018-12-05T18:36:26.651Z,12.40
2018-12-05T18:39:00.432Z,14.50
2018-12-05T18:41:33.022Z,12.93
2018-12-05T18:44:09.489Z,13.17
2018-12-05T18:46:56.611Z,13.87
2018-12-05T18:49:28.965Z,13.17
2018-12-05T18:52:02.878Z,13.10
2018-12-05T18:54:34.979Z,13.97
2018-12-05T18:57:09.579Z,14.17
2018-12-05T18:59:40.112Z,14.07
2018-12-05T19:02:12.502Z,15.40
2018-12-05T19:04:44.327Z,13.30
2018-12-05T19:07:15.373Z,13.20
2018-12-05T19:09:49.871Z,13.60
2018-12-05T19:12:37.058Z,14.03
2018-12-05T19:15:09.958Z,13.23
2018-12-05T19:17:42.869Z,12.57
2018-12-05T19:20:18.671Z,13.73
2018-12-05T19:22:51.053Z,14.40
2018-12-05T19:34:25.669Z,13.07
2018-12-05T19:37:01.016Z,14.50
2018-12-05T19:39:35.814Z,13.57
2018-12-05T19:42:10.932Z,13.13
2018-12-05T19:44:49.552Z,15.23
2018-12-05T19:47:33.083Z,13.63
2018-12-05T19:50:08.460Z,13.87
2018-12-05T19:52:42.778Z,14.97
2018-12-05T19:55:18.769Z,13.80
2018-12-05T19:57:56.335Z,15.57
2018-12-05T20:00:30.162Z,15.27
2018-12-05T20:03:06.420Z,14.20
2018-12-05T20:05:39.474Z,15.83
2018-12-05T20:10:54.656Z,13.37
2018-12-05T20:13:33.201Z,14.73
2018-12-05T20:16:23.904Z,13.70
2018-12-05T20:19:02.692Z,15.53
2018-12-05T20:21:43.951Z,14.33
2018-12-05T20:24:35.535Z,14.97
2018-12-05T20:27:13.246Z,15.03
2018-12-05T20:29:49.609Z,15.23
2018-12-05T20:32:25.222Z,13.60
2018-12-05T20:35:00.219Z,14.07
2018-12-05T20:37:34.526Z,15.03
2018-12-05T20:40:14.861Z,14.23
2018-12-05T20:43:04.357Z,14.23
2018-12-05T20:45:41.326Z,13.43
2018-12-05T20:48:17.316Z,14.43
2018-12-05T20:50:54.559Z,14.73
2018-12-05T20:53:31.552Z,14.17
2018-12-05T20:56:08.884Z,14.63
2018-12-05T20:58:44.440Z,14.40
2018-12-05T21:01:24.403Z,14.17
2018-12-05T21:04:06.933Z,15.23
2018-12-05T21:06:42.501Z,16.17
2018-12-05T21:09:15.490Z,14.43
2018-12-05T21:11:47.330Z,15.30
2018-12-05T21:14:18.812Z,15.77
2018-12-05T21:16:57.907Z,14.77
2018-12-05T21:19:30.409Z,14.63
2018-12-05T21:22:01.659Z,13.50
2018-12-05T21:24:33.294Z,14.83
2018-12-05T21:27:04.463Z,14.27
2018-12-05T21:29:35.892Z,15.07
2018-12-05T21:32:07.099Z,14.20
2018-12-05T21:34:42.953Z,13.50
2018-12-05T21:37:25.805Z,15.37
2018-12-05T21:45:45.253Z,14.50
2018-12-05T21:48:22.377Z,15.50
2018-12-05T21:50:54.136Z,15.57
2018-12-05T21:53:28.723Z,14.87
2018-12-05T21:56:06.492Z,15.40
2018-12-05T21:58:43.190Z,14.43
2018-12-05T22:01:23.938Z,13.70
2018-12-05T22:04:12.615Z,14.17
2018-12-05T22:06:46.751Z,13.93
2018-12-05T22:09:17.829Z,15.70
2018-12-05T22:11:57.740Z,15.07
2018-12-05T22:14:33.596Z,15.80
2018-12-05T22:17:05.634Z,14.97
2018-12-05T22:19:49.462Z,15.37
2018-12-05T22:22:24.227Z,15.63
2018-12-05T22:24:59.153Z,14.60
2018-12-05T22:27:30.057Z,14.70
2018-12-05T22:30:02.107Z,14.57
2018-12-05T22:32:33.077Z,14.77
2018-12-05T22:35:06.021Z,14.33
2018-12-05T22:37:40.844Z,14.93
2018-12-05T22:40:18.790Z,15.60
2018-12-05T22:42:55.430Z,13.47
2018-12-05T22:45:29.468Z,13.47
2018-12-05T22:48:04.075Z,13.97
2018-12-05T22:50:37.390Z,14.03
2018-12-05T22:53:12.180Z,14.27
2018-12-05T22:55:48.764Z,13.53
2018-12-05T22:58:23.785Z,14.90
2018-12-05T23:00:59.693Z,15.40
2018-12-05T23:03:35.973Z,14.20
2018-12-05T23:06:08.746Z,13.23
2018-12-05T23:08:41.621Z,14.07
2018-12-05T23:11:14.760Z,14.37
2018-12-05T23:13:46.711Z,12.97
2018-12-05T23:16:23.306Z,13.43
2018-12-05T23:18:56.111Z,13.43
2018-12-05T23:21:40.161Z,14.57
2018-12-05T23:24:14.575Z,14.10
2018-12-05T23:26:46.581Z,14.50
2018-12-05T23:29:19.347Z,13.57
2018-12-05T23:32:07.235Z,13.63
2018-12-05T23:34:39.305Z,14.30
2018-12-05T23:37:10.536Z,13.43
2018-12-05T23:39:41.541Z,14.63
2018-12-05T23:42:12.877Z,14.30
2018-12-05T23:44:43.874Z,14.30
2018-12-05T23:47:14.849Z,14.33
2018-12-05T23:49:46.594Z,14.70
2018-12-05T23:52:17.567Z,13.87
2018-12-05T23:54:50.205Z,13.80
2018-12-05T23:57:21.151Z,14.93
2018-12-05T23:59:52.163Z,14.73
